createdAt,value
2023-03-27T00:01:30.712Z,10.80
2023-03-27T00:03:59.553Z,10.60
2023-03-27T00:06:27.822Z,10.27
2023-03-27T00:08:56.579Z,10.83
2023-03-27T00:11:28.346Z,11.00
2023-03-27T00:13:56.558Z,10.90
2023-03-27T00:16:27.628Z,12.00
2023-03-27T00:18:57.717Z,10.50
2023-03-27T00:21:26.134Z,11.70
2023-03-27T00:23:57.529Z,11.23
2023-03-27T00:26:30.600Z,12.23
2023-03-27T00:28:59.669Z,11.17
2023-03-27T00:31:27.980Z,11.47
2023-03-27T00:33:58.756Z,11.77
2023-03-27T00:36:29.358Z,11.93
2023-03-27T00:38:57.829Z,12.70
2023-03-27T00:41:26.125Z,12.53
2023-03-27T00:43:56.375Z,12.40
2023-03-27T00:46:45.412Z,12.53
2023-03-27T00:49:17.047Z,12.13
2023-03-27T00:51:48.120Z,12.00
2023-03-27T00:54:22.556Z,11.80
2023-03-27T00:56:51.112Z,12.40
2023-03-27T00:59:22.091Z,12.23
2023-03-27T01:01:52.757Z,12.87
2023-03-27T01:04:24.566Z,11.67
2023-03-27T01:06:54.847Z,12.27
2023-03-27T01:09:29.431Z,11.73
2023-03-27T01:12:20.376Z,11.83
2023-03-27T01:15:00.942Z,11.43
2023-03-27T01:17:45.622Z,11.90
2023-03-27T01:20:47.157Z,11.83
2023-03-27T01:23:59.590Z,12.20
2023-03-27T01:26:58.005Z,13.07
2023-03-27T01:29:40.556Z,12.10
2023-03-27T01:32:34.948Z,12.43
2023-03-27T01:35:30.611Z,12.10
2023-03-27T01:38:11.536Z,11.93
2023-03-27T01:40:48.570Z,12.07
2023-03-27T01:43:20.587Z,13.20
2023-03-27T01:45:56.611Z,12.50
2023-03-27T01:48:34.010Z,12.17
2023-03-27T01:51:05.065Z,13.10
2023-03-27T01:53:37.169Z,13.27
2023-03-27T01:56:10.572Z,12.70
2023-03-27T01:58:46.407Z,12.13
2023-03-27T02:01:20.651Z,12.17
2023-03-27T02:03:54.803Z,13.10
2023-03-27T02:06:28.644Z,12.87
2023-03-27T02:09:02.059Z,12.47
2023-03-27T02:11:38.559Z,13.53
2023-03-27T02:14:10.982Z,12.53
2023-03-27T02:16:46.305Z,13.23
2023-03-27T02:19:21.600Z,13.27
2023-03-27T02:21:50.555Z,12.53
2023-03-27T02:24:20.114Z,13.00
2023-03-27T02:26:58.555Z,13.30
2023-03-27T02:29:43.807Z,13.20
2023-03-27T02:32:26.661Z,12.83
2023-03-27T02:35:05.592Z,13.47
2023-03-27T02:37:51.587Z,13.33
2023-03-27T02:40:29.603Z,13.07
2023-03-27T02:43:23.580Z,13.67
2023-03-27T02:45:55.763Z,13.07
2023-03-27T02:48:34.602Z,13.03
2023-03-27T02:51:08.602Z,14.83
2023-03-27T02:53:43.233Z,14.70
2023-03-27T02:56:13.610Z,14.53
2023-03-27T02:58:50.603Z,14.27
2023-03-27T03:01:36.411Z,13.53
2023-03-27T03:04:32.121Z,14.63
2023-03-27T03:07:16.270Z,14.47
2023-03-27T03:09:47.398Z,14.10
2023-03-27T03:12:16.130Z,14.60
2023-03-27T03:14:49.574Z,15.70
2023-03-27T03:17:20.643Z,15.27
2023-03-27T03:19:50.593Z,14.27
2023-03-27T03:22:19.053Z,15.10
2023-03-27T03:24:47.553Z,14.80
2023-03-27T03:27:21.318Z,14.33
2023-03-27T03:29:58.492Z,14.63
2023-03-27T03:32:30.622Z,15.10
2023-03-27T03:35:02.642Z,14.63
2023-03-27T03:37:38.453Z,14.73
2023-03-27T03:40:13.608Z,14.23
2023-03-27T03:42:46.657Z,14.63
2023-03-27T03:45:19.630Z,13.73
2023-03-27T03:47:53.452Z,14.47
2023-03-27T03:50:21.827Z,15.30
2023-03-27T03:52:50.471Z,15.67
2023-03-27T03:55:19.613Z,16.00
2023-03-27T03:57:49.641Z,15.00
2023-03-27T04:00:26.768Z,15.03
2023-03-27T04:02:58.713Z,18.20
2023-03-27T04:05:27.149Z,18.60
2023-03-27T04:07:59.608Z,16.50
2023-03-27T04:10:31.327Z,16.90
2023-03-27T04:13:04.619Z,16.63
2023-03-27T04:15:55.420Z,16.30
2023-03-27T04:18:36.216Z,16.47
2023-03-27T04:21:14.424Z,15.70
2023-03-27T04:23:45.603Z,14.90
2023-03-27T04:26:26.442Z,14.50
2023-03-27T04:29:18.605Z,14.63
2023-03-27T04:32:09.568Z,15.47
2023-03-27T04:34:44.417Z,17.00
2023-03-27T04:37:33.622Z,16.33
2023-03-27T04:40:21.648Z,16.07
2023-03-27T04:42:50.277Z,16.27
2023-03-27T04:45:23.634Z,15.23
2023-03-27T04:47:54.907Z,15.37
2023-03-27T04:50:24.632Z,15.87
2023-03-27T04:52:59.638Z,17.03
2023-03-27T04:55:38.760Z,15.27
2023-03-27T04:58:08.046Z,15.37
2023-03-27T05:00:37.443Z,15.03
2023-03-27T05:03:26.458Z,14.80
2023-03-27T05:06:04.657Z,14.90
2023-03-27T05:08:33.445Z,14.20
2023-03-27T05:11:01.735Z,15.83
2023-03-27T05:13:36.948Z,15.50
2023-03-27T05:16:10.662Z,15.90
2023-03-27T05:18:49.256Z,27.23
2023-03-27T05:21:17.659Z,16.37
2023-03-27T05:23:45.870Z,14.00
2023-03-27T05:26:14.164Z,15.83
2023-03-27T05:28:52.699Z,15.80
2023-03-27T05:31:21.880Z,14.73
2023-03-27T05:34:13.685Z,15.40
2023-03-27T05:36:44.001Z,16.50
2023-03-27T05:39:12.940Z,16.90
2023-03-27T05:41:45.731Z,16.87
2023-03-27T05:44:23.633Z,17.13
2023-03-27T05:46:53.634Z,16.13
2023-03-27T05:49:34.157Z,16.83
2023-03-27T05:52:12.669Z,14.63
2023-03-27T05:54:42.816Z,14.87
2023-03-27T05:57:13.705Z,14.37
2023-03-27T05:59:42.520Z,13.90
2023-03-27T06:02:21.306Z,12.80
2023-03-27T06:05:01.441Z,11.37
2023-03-27T06:07:36.032Z,11.00
2023-03-27T06:10:13.309Z,10.97
2023-03-27T06:12:48.704Z,19.70
2023-03-27T06:15:34.654Z,13.57
2023-03-27T06:18:18.443Z,12.70
2023-03-27T06:20:48.871Z,12.50
2023-03-27T06:23:17.666Z,12.30
2023-03-27T06:25:48.419Z,14.63
2023-03-27T06:28:17.758Z,12.00
2023-03-27T06:30:47.977Z,11.60
2023-03-27T06:33:37.451Z,11.57
2023-03-27T06:36:10.253Z,10.53
2023-03-27T06:38:45.316Z,10.37
2023-03-27T06:41:13.771Z,8.90
2023-03-27T06:44:05.911Z,8.80
2023-03-27T06:46:53.047Z,9.87
2023-03-27T06:49:28.282Z,8.90
2023-03-27T06:51:58.030Z,8.77
2023-03-27T06:54:26.681Z,7.67
2023-03-27T06:56:56.544Z,7.60
2023-03-27T06:59:27.537Z,7.00
2023-03-27T07:02:00.680Z,6.83
2023-03-27T07:04:29.727Z,6.67
2023-03-27T07:07:16.002Z,6.70
2023-03-27T07:09:45.284Z,6.57
2023-03-27T07:12:16.146Z,5.87
2023-03-27T07:14:47.039Z,5.90
2023-03-27T07:17:15.408Z,5.80
2023-03-27T07:19:54.735Z,5.10
2023-03-27T07:22:28.194Z,5.10
2023-03-27T07:24:58.506Z,5.80
2023-03-27T07:27:28.289Z,5.20
2023-03-27T07:30:01.572Z,6.23
2023-03-27T07:32:37.157Z,5.80
2023-03-27T07:35:09.418Z,5.57
2023-03-27T07:38:04.089Z,5.10
2023-03-27T07:40:40.548Z,6.13
2023-03-27T07:43:28.404Z,5.20
2023-03-27T07:45:58.965Z,5.00
2023-03-27T07:48:29.056Z,4.80
2023-03-27T07:53:35.909Z,4.70
2023-03-27T07:56:13.942Z,4.20
2023-03-27T07:58:44.788Z,4.00
2023-03-27T08:01:18.832Z,4.03
2023-03-27T08:03:48.616Z,3.83
2023-03-27T08:06:18.743Z,4.53
2023-03-27T08:08:50.837Z,4.13
2023-03-27T08:11:30.106Z,4.10
2023-03-27T08:14:00.383Z,4.20
2023-03-27T08:16:30.173Z,4.60
2023-03-27T08:19:01.346Z,4.63
2023-03-27T08:21:33.318Z,4.00
2023-03-27T08:24:04.853Z,4.07
2023-03-27T08:26:37.243Z,3.93
2023-03-27T08:29:10.797Z,3.43
2023-03-27T08:31:41.517Z,3.50
2023-03-27T08:34:10.501Z,3.70
2023-03-27T08:36:49.743Z,4.70
2023-03-27T08:39:22.950Z,3.20
2023-03-27T08:42:08.342Z,2.70
2023-03-27T08:44:39.485Z,2.60
2023-03-27T08:47:18.100Z,2.70
2023-03-27T08:49:57.342Z,2.53
2023-03-27T08:52:36.739Z,2.80
2023-03-27T08:55:18.763Z,3.10
2023-03-27T08:58:06.850Z,2.70
2023-03-27T09:00:40.485Z,2.43
2023-03-27T09:03:25.694Z,2.27
2023-03-27T09:06:00.412Z,2.20
2023-03-27T09:08:44.662Z,2.30
2023-03-27T09:11:28.763Z,1.97
2023-03-27T09:14:05.072Z,1.70
2023-03-27T09:16:40.313Z,1.70
2023-03-27T09:19:16.670Z,2.40
2023-03-27T09:21:49.756Z,2.47
2023-03-27T09:24:38.730Z,2.50
2023-03-27T09:27:32.758Z,2.70
2023-03-27T09:30:25.959Z,2.97
2023-03-27T09:33:03.685Z,3.13
2023-03-27T09:35:33.110Z,3.53
2023-03-27T09:38:04.116Z,4.47
2023-03-27T09:40:45.751Z,4.00
2023-03-27T09:43:23.742Z,3.73
2023-03-27T09:46:01.734Z,3.80
2023-03-27T09:48:39.297Z,3.27
2023-03-27T09:51:41.913Z,2.50
2023-03-27T09:54:22.579Z,2.63
2023-03-27T09:56:55.839Z,2.87
2023-03-27T09:59:29.729Z,2.20
2023-03-27T10:02:19.779Z,2.50
2023-03-27T10:04:59.982Z,1.90
2023-03-27T10:07:34.754Z,2.30
2023-03-27T10:10:45.326Z,2.20
2023-03-27T10:13:39.899Z,2.37
2023-03-27T10:16:12.005Z,2.40
2023-03-27T10:18:56.061Z,2.50
2023-03-27T10:21:29.519Z,2.67
2023-03-27T10:24:06.741Z,2.37
2023-03-27T10:26:53.112Z,2.03
2023-03-27T10:29:26.814Z,2.27
2023-03-27T10:32:01.938Z,2.20
2023-03-27T10:34:53.914Z,2.30
2023-03-27T10:37:29.480Z,2.27
2023-03-27T10:40:38.498Z,2.40
2023-03-27T10:43:18.753Z,2.10
2023-03-27T10:45:51.215Z,2.30
2023-03-27T10:48:37.391Z,1.90
2023-03-27T10:51:11.186Z,2.40
2023-03-27T10:54:05.357Z,2.70
2023-03-27T10:56:55.013Z,2.10
2023-03-27T10:59:41.152Z,2.30
2023-03-27T11:02:40.500Z,2.43
2023-03-27T11:05:14.808Z,2.53
2023-03-27T11:07:49.436Z,2.17
2023-03-27T11:10:23.348Z,2.13
2023-03-27T11:12:57.799Z,2.27
2023-03-27T11:15:32.810Z,2.30
2023-03-27T11:18:05.628Z,2.90
2023-03-27T11:20:46.779Z,2.40
2023-03-27T11:23:30.053Z,2.70
2023-03-27T11:26:24.788Z,2.07
2023-03-27T11:28:59.155Z,2.10
2023-03-27T11:31:40.880Z,2.10
2023-03-27T11:34:29.281Z,2.13
2023-03-27T11:37:24.808Z,2.43
2023-03-27T11:39:58.624Z,2.07
2023-03-27T11:42:30.759Z,2.50
2023-03-27T11:45:04.441Z,2.10
2023-03-27T11:47:49.791Z,2.37
2023-03-27T11:50:27.332Z,2.10
2023-03-27T11:53:26.144Z,2.30
2023-03-27T11:56:26.809Z,2.40
2023-03-27T11:59:25.343Z,1.63
2023-03-27T12:02:09.880Z,2.10
2023-03-27T12:04:48.616Z,1.83
2023-03-27T12:07:47.665Z,1.83
2023-03-27T12:10:29.738Z,2.77
2023-03-27T12:14:02.259Z,1.97
2023-03-27T12:17:15.771Z,2.00
2023-03-27T12:20:28.388Z,1.73
2023-03-27T12:23:20.026Z,1.60
2023-03-27T12:26:33.179Z,1.50
2023-03-27T12:29:24.660Z,1.33
2023-03-27T12:32:18.737Z,1.63
2023-03-27T12:34:53.140Z,1.80
2023-03-27T12:37:30.100Z,1.70
2023-03-27T12:40:00.464Z,2.00
2023-03-27T12:42:51.898Z,1.90
2023-03-27T12:45:24.861Z,2.00
2023-03-27T12:48:19.736Z,1.90
2023-03-27T12:50:58.191Z,1.70
2023-03-27T12:53:51.785Z,1.80
2023-03-27T12:56:30.611Z,1.40
2023-03-27T12:59:00.853Z,1.77
2023-03-27T13:02:03.927Z,1.50
2023-03-27T13:04:54.340Z,1.80
2023-03-27T13:07:31.492Z,1.80
2023-03-27T13:10:27.645Z,1.67
2023-03-27T13:13:23.833Z,1.63
2023-03-27T13:16:05.877Z,2.20
2023-03-27T13:19:05.353Z,1.63
2023-03-27T13:21:50.014Z,1.60
2023-03-27T13:24:51.468Z,1.60
2023-03-27T13:27:39.827Z,1.50
2023-03-27T13:30:41.849Z,1.87
2023-03-27T13:33:39.864Z,1.87
2023-03-27T13:36:17.746Z,1.97
2023-03-27T13:39:04.734Z,1.93
2023-03-27T13:42:04.014Z,1.30
2023-03-27T13:44:58.846Z,1.83
2023-03-27T13:48:09.235Z,1.77
2023-03-27T13:51:09.380Z,2.10
2023-03-27T13:54:00.247Z,1.97
2023-03-27T13:56:53.165Z,1.83
2023-03-27T14:00:08.362Z,1.80
2023-03-27T14:03:20.317Z,2.17
2023-03-27T14:06:46.704Z,2.20
2023-03-27T14:09:31.360Z,1.93
2023-03-27T14:12:26.844Z,2.03
2023-03-27T14:15:26.853Z,1.90
2023-03-27T14:18:48.327Z,1.97
2023-03-27T14:21:31.286Z,2.00
2023-03-27T14:24:18.986Z,1.87
2023-03-27T14:26:55.861Z,1.60
2023-03-27T14:29:24.356Z,1.60
2023-03-27T14:31:53.562Z,1.63
2023-03-27T14:34:47.320Z,1.50
2023-03-27T14:37:42.008Z,1.50
2023-03-27T14:40:29.661Z,1.53
2023-03-27T14:43:04.668Z,1.63
2023-03-27T14:45:36.477Z,1.60
2023-03-27T14:48:10.336Z,1.50
2023-03-27T14:50:48.831Z,1.60
2023-03-27T14:53:26.738Z,1.60
2023-03-27T14:56:12.046Z,1.57
2023-03-27T14:59:05.707Z,1.73
2023-03-27T15:01:53.246Z,1.80
2023-03-27T15:04:21.944Z,1.60
2023-03-27T15:06:56.105Z,1.70
2023-03-27T15:09:44.333Z,1.30
2023-03-27T15:12:38.916Z,1.40
2023-03-27T15:15:27.870Z,1.60
2023-03-27T15:18:01.210Z,1.70
2023-03-27T15:20:34.427Z,5.30
2023-03-27T15:23:09.996Z,1.80
2023-03-27T15:25:42.741Z,1.60
2023-03-27T15:28:17.923Z,1.40
2023-03-27T15:30:51.956Z,1.50
2023-03-27T15:33:26.101Z,1.40
2023-03-27T15:35:57.102Z,1.73
2023-03-27T15:38:29.935Z,1.90
2023-03-27T15:41:02.865Z,1.60
2023-03-27T15:43:31.901Z,1.77
2023-03-27T15:46:15.130Z,1.90
2023-03-27T15:48:45.962Z,2.10
2023-03-27T15:51:30.886Z,2.00
2023-03-27T15:53:59.083Z,1.80
2023-03-27T15:56:30.441Z,2.30
2023-03-27T15:59:01.460Z,2.30
2023-03-27T16:01:37.959Z,2.10
2023-03-27T16:04:08.930Z,1.90
2023-03-27T16:06:44.886Z,2.10
2023-03-27T16:09:24.899Z,2.07
2023-03-27T16:11:55.921Z,2.33
2023-03-27T16:14:30.096Z,2.03
2023-03-27T16:17:20.730Z,2.40
2023-03-27T16:19:55.545Z,2.50
2023-03-27T16:22:25.700Z,2.43
2023-03-27T16:24:53.999Z,2.30
2023-03-27T16:27:26.553Z,2.70
2023-03-27T16:29:55.317Z,2.87
2023-03-27T16:32:25.082Z,2.73
2023-03-27T16:34:53.839Z,2.40
2023-03-27T16:37:24.425Z,2.13
2023-03-27T16:39:53.881Z,2.20
2023-03-27T16:42:26.483Z,2.60
2023-03-27T16:44:55.364Z,2.27
2023-03-27T16:47:25.172Z,2.80
2023-03-27T16:50:10.249Z,2.20
2023-03-27T16:52:39.808Z,2.33
2023-03-27T16:55:09.931Z,2.67
2023-03-27T16:57:38.120Z,2.20
2023-03-27T17:00:09.923Z,1.90
2023-03-27T17:02:39.688Z,2.20
2023-03-27T17:05:09.874Z,2.03
2023-03-27T17:07:39.933Z,2.10
2023-03-27T17:10:10.339Z,2.43
2023-03-27T17:12:41.944Z,2.20
2023-03-27T17:15:11.286Z,2.10
2023-03-27T17:17:40.936Z,1.90
2023-03-27T17:20:10.910Z,2.23
2023-03-27T17:22:39.368Z,2.30
2023-03-27T17:25:10.932Z,2.33
2023-03-27T17:27:40.705Z,2.13
2023-03-27T17:30:10.016Z,2.30
2023-03-27T17:32:38.522Z,2.50
2023-03-27T17:35:09.047Z,2.43
2023-03-27T17:37:37.228Z,3.40
2023-03-27T17:40:09.906Z,2.40
2023-03-27T17:42:38.424Z,2.60
2023-03-27T17:45:07.650Z,3.47
2023-03-27T17:47:36.229Z,2.77
2023-03-27T17:50:04.727Z,3.43
2023-03-27T17:52:37.013Z,3.00
2023-03-27T17:55:05.711Z,3.27
2023-03-27T17:57:34.023Z,3.60
2023-03-27T18:00:06.537Z,3.30
2023-03-27T18:02:40.789Z,3.40
2023-03-27T18:05:09.589Z,3.17
2023-03-27T18:07:39.130Z,2.93
2023-03-27T18:10:13.178Z,4.37
2023-03-27T18:12:41.697Z,4.00
2023-03-27T18:15:10.672Z,2.70
2023-03-27T18:17:38.943Z,3.53
2023-03-27T18:20:10.291Z,2.67
2023-03-27T18:22:40.284Z,3.17
2023-03-27T18:25:10.298Z,2.90
2023-03-27T18:27:40.372Z,2.50
2023-03-27T18:30:12.690Z,2.70
2023-03-27T18:32:42.714Z,2.50
2023-03-27T18:35:17.332Z,3.60
2023-03-27T18:37:47.582Z,2.80
2023-03-27T18:40:18.415Z,3.20
2023-03-27T18:42:47.186Z,3.20
2023-03-27T18:45:17.743Z,3.13
2023-03-27T18:47:46.396Z,3.20
2023-03-27T18:50:15.709Z,3.20
2023-03-27T18:52:46.424Z,3.20
2023-03-27T18:55:16.053Z,3.50
2023-03-27T18:57:45.287Z,3.43
2023-03-27T19:00:18.402Z,3.50
2023-03-27T19:02:48.108Z,3.40
2023-03-27T19:05:17.814Z,3.73
2023-03-27T19:07:46.886Z,3.20
2023-03-27T19:10:16.962Z,3.80
2023-03-27T19:13:07.031Z,4.20
2023-03-27T19:15:58.014Z,5.30
2023-03-27T19:19:01.962Z,3.60
2023-03-27T19:22:08.537Z,4.17
2023-03-27T19:24:44.802Z,4.00
2023-03-27T19:27:24.042Z,3.57
2023-03-27T19:29:53.464Z,3.00
2023-03-27T19:32:22.085Z,3.07
2023-03-27T19:34:50.538Z,4.00
2023-03-27T19:37:18.965Z,2.90
2023-03-27T19:39:49.565Z,2.97
2023-03-27T19:42:19.457Z,2.97
2023-03-27T19:44:50.357Z,3.23
2023-03-27T19:47:19.053Z,3.10
2023-03-27T19:49:47.978Z,2.67
2023-03-27T19:52:28.980Z,3.60
2023-03-27T19:54:57.978Z,3.27
2023-03-27T19:57:27.865Z,3.13
2023-03-27T19:59:56.205Z,3.10
2023-03-27T20:02:25.240Z,3.27
2023-03-27T20:04:55.052Z,2.70
2023-03-27T20:07:23.352Z,3.20
2023-03-27T20:09:53.517Z,3.40
2023-03-27T20:12:23.386Z,3.30
2023-03-27T20:15:02.947Z,3.57
2023-03-27T20:17:36.978Z,3.40
2023-03-27T20:20:08.732Z,2.80
2023-03-27T20:22:46.767Z,3.30
2023-03-27T20:25:25.983Z,3.57
2023-03-27T20:27:54.823Z,3.03
2023-03-27T20:30:24.593Z,3.20
2023-03-27T20:32:54.119Z,3.43
2023-03-27T20:35:24.968Z,3.30
2023-03-27T20:37:58.119Z,3.60
2023-03-27T20:40:34.774Z,3.60
2023-03-27T20:43:08.282Z,3.60
2023-03-27T20:45:43.004Z,3.10
2023-03-27T20:48:15.012Z,3.03
2023-03-27T20:50:49.173Z,2.87
2023-03-27T20:53:19.961Z,3.07
2023-03-27T20:55:59.225Z,3.00
2023-03-27T20:58:28.825Z,3.60
2023-03-27T21:01:07.146Z,3.93
2023-03-27T21:03:37.973Z,4.03
2023-03-27T21:06:07.977Z,3.40
2023-03-27T21:08:36.969Z,3.80
2023-03-27T21:11:06.213Z,3.77
2023-03-27T21:13:34.459Z,3.70
2023-03-27T21:16:04.866Z,3.97
2023-03-27T21:18:34.977Z,4.57
2023-03-27T21:21:03.346Z,4.63
2023-03-27T21:23:32.005Z,4.73
2023-03-27T21:26:02.124Z,4.60
2023-03-27T21:28:30.563Z,4.50
2023-03-27T21:31:00.020Z,4.97
2023-03-27T21:33:29.535Z,4.73
2023-03-27T21:35:57.789Z,5.10
2023-03-27T21:38:31.057Z,4.87
2023-03-27T21:40:59.967Z,4.67
2023-03-27T21:43:28.215Z,3.90
2023-03-27T21:45:58.277Z,4.00
2023-03-27T21:48:26.646Z,3.97
2023-03-27T21:50:59.830Z,4.33
2023-03-27T21:53:28.158Z,4.20
2023-03-27T21:55:56.768Z,4.20
2023-03-27T21:58:26.139Z,4.70
2023-03-27T22:00:56.725Z,3.97
2023-03-27T22:03:27.020Z,3.60
2023-03-27T22:06:08.402Z,4.17
2023-03-27T22:08:39.515Z,3.77
2023-03-27T22:11:08.013Z,3.60
2023-03-27T22:13:37.414Z,3.63
2023-03-27T22:16:11.121Z,3.43
2023-03-27T22:18:39.530Z,3.70
2023-03-27T22:21:23.054Z,3.50
2023-03-27T22:23:52.324Z,3.00
2023-03-27T22:26:21.789Z,3.00
2023-03-27T22:28:52.766Z,3.10
2023-03-27T22:31:21.823Z,3.20
2023-03-27T22:33:51.649Z,3.07
2023-03-27T22:36:22.008Z,2.97
2023-03-27T22:38:53.165Z,3.13
2023-03-27T22:41:21.965Z,3.77
2023-03-27T22:43:50.115Z,3.30
2023-03-27T22:46:21.065Z,3.07
2023-03-27T22:48:53.970Z,3.63
2023-03-27T22:51:25.024Z,3.10
2023-03-27T22:53:53.268Z,3.23
2023-03-27T22:56:21.668Z,3.50
2023-03-27T22:58:51.417Z,3.67
2023-03-27T23:01:19.658Z,3.70
2023-03-27T23:03:48.981Z,3.87
2023-03-27T23:06:19.034Z,3.70
2023-03-27T23:08:52.564Z,3.50
2023-03-27T23:11:22.275Z,3.97
2023-03-27T23:13:50.927Z,3.80
2023-03-27T23:16:20.041Z,4.00
2023-03-27T23:18:48.300Z,4.77
2023-03-27T23:21:17.947Z,4.60
2023-03-27T23:23:49.045Z,5.00
2023-03-27T23:26:18.202Z,5.23
2023-03-27T23:28:47.103Z,4.53
2023-03-27T23:31:18.066Z,4.13
2023-03-27T23:33:49.129Z,4.13
2023-03-27T23:36:19.883Z,4.20
2023-03-27T23:38:51.623Z,4.03
2023-03-27T23:41:23.536Z,3.67
2023-03-27T23:43:54.448Z,3.63
2023-03-27T23:46:23.146Z,3.50
2023-03-27T23:48:51.507Z,3.60
2023-03-27T23:51:19.758Z,4.60
2023-03-27T23:53:52.784Z,3.10
2023-03-27T23:56:22.025Z,3.40
2023-03-27T23:58:50.181Z,3.50
